sensor_id;sensor_type;location;lat;lon;timestamp;P1;durP1;ratioP1;P2;durP2;ratioP2
13090;SDS011;6611;52.604;13.438;2023-12-14T00:01:34;15.67;;;9.70;;
13090;SDS011;6611;52.604;13.438;2023-12-14T00:06:37;17.80;;;9.93;;
13090;SDS011;6611;52.604;13.438;2023-12-14T00:11:39;15.63;;;9.57;;
13090;SDS011;6611;52.604;13.438;2023-12-14T00:16:40;14.00;;;8.40;;
13090;SDS011;6611;52.604;13.438;2023-12-14T00:21:43;17.00;;;10.27;;
13090;SDS011;6611;52.604;13.438;2023-12-14T00:26:45;15.00;;;9.07;;
13090;SDS011;6611;52.604;13.438;2023-12-14T00:31:46;13.77;;;8.70;;
13090;SDS011;6611;52.604;13.438;2023-12-14T00:36:49;12.80;;;8.77;;
13090;SDS011;6611;52.604;13.438;2023-12-14T00:41:51;15.00;;;9.00;;
13090;SDS011;6611;52.604;13.438;2023-12-14T00:46:53;13.70;;;8.33;;
13090;SDS011;6611;52.604;13.438;2023-12-14T00:51:56;12.53;;;7.47;;
13090;SDS011;6611;52.604;13.438;2023-12-14T00:56:58;11.37;;;7.40;;
13090;SDS011;6611;52.604;13.438;2023-12-14T01:02:00;12.97;;;7.10;;
13090;SDS011;6611;52.604;13.438;2023-12-14T01:07:03;11.03;;;6.73;;
13090;SDS011;6611;52.604;13.438;2023-12-14T01:12:05;12.10;;;7.07;;
13090;SDS011;6611;52.604;13.438;2023-12-14T01:17:07;13.00;;;7.37;;
13090;SDS011;6611;52.604;13.438;2023-12-14T01:22:10;9.00;;;6.40;;
13090;SDS011;6611;52.604;13.438;2023-12-14T01:27:12;8.87;;;6.27;;
13090;SDS011;6611;52.604;13.438;2023-12-14T01:32:14;12.07;;;6.33;;
13090;SDS011;6611;52.604;13.438;2023-12-14T01:37:16;10.53;;;6.33;;
13090;SDS011;6611;52.604;13.438;2023-12-14T01:42:18;8.07;;;5.90;;
13090;SDS011;6611;52.604;13.438;2023-12-14T01:47:20;11.70;;;7.37;;
13090;SDS011;6611;52.604;13.438;2023-12-14T01:52:23;9.93;;;5.90;;
13090;SDS011;6611;52.604;13.438;2023-12-14T01:57:24;9.93;;;6.60;;
13090;SDS011;6611;52.604;13.438;2023-12-14T02:02:26;9.30;;;7.00;;
13090;SDS011;6611;52.604;13.438;2023-12-14T02:07:29;10.53;;;6.17;;
13090;SDS011;6611;52.604;13.438;2023-12-14T02:12:30;11.57;;;6.90;;
13090;SDS011;6611;52.604;13.438;2023-12-14T02:17:33;9.23;;;6.40;;
13090;SDS011;6611;52.604;13.438;2023-12-14T02:22:47;10.80;;;6.70;;
13090;SDS011;6611;52.604;13.438;2023-12-14T02:27:50;9.20;;;6.30;;
13090;SDS011;6611;52.604;13.438;2023-12-14T02:32:53;12.13;;;7.50;;
13090;SDS011;6611;52.604;13.438;2023-12-14T02:37:56;12.47;;;6.93;;
13090;SDS011;6611;52.604;13.438;2023-12-14T02:42:57;9.93;;;7.00;;
13090;SDS011;6611;52.604;13.438;2023-12-14T02:47:59;12.53;;;7.97;;
13090;SDS011;6611;52.604;13.438;2023-12-14T02:53:02;11.40;;;7.30;;
13090;SDS011;6611;52.604;13.438;2023-12-14T02:58:03;13.23;;;7.87;;
13090;SDS011;6611;52.604;13.438;2023-12-14T03:03:05;9.97;;;7.40;;
13090;SDS011;6611;52.604;13.438;2023-12-14T03:08:08;10.20;;;7.83;;
13090;SDS011;6611;52.604;13.438;2023-12-14T03:13:10;11.20;;;7.47;;
13090;SDS011;6611;52.604;13.438;2023-12-14T03:18:12;9.03;;;6.83;;
13090;SDS011;6611;52.604;13.438;2023-12-14T03:23:15;10.10;;;6.90;;
13090;SDS011;6611;52.604;13.438;2023-12-14T03:28:16;7.57;;;5.77;;
13090;SDS011;6611;52.604;13.438;2023-12-14T03:33:18;10.77;;;6.07;;
13090;SDS011;6611;52.604;13.438;2023-12-14T03:38:21;8.87;;;5.87;;
13090;SDS011;6611;52.604;13.438;2023-12-14T03:43:23;8.47;;;5.93;;
13090;SDS011;6611;52.604;13.438;2023-12-14T03:48:25;9.97;;;6.33;;
13090;SDS011;6611;52.604;13.438;2023-12-14T03:53:28;8.27;;;5.77;;
13090;SDS011;6611;52.604;13.438;2023-12-14T03:58:30;7.77;;;5.90;;
13090;SDS011;6611;52.604;13.438;2023-12-14T04:03:31;8.57;;;6.30;;
13090;SDS011;6611;52.604;13.438;2023-12-14T04:08:34;9.30;;;6.33;;
13090;SDS011;6611;52.604;13.438;2023-12-14T04:13:37;11.03;;;7.03;;
13090;SDS011;6611;52.604;13.438;2023-12-14T04:18:39;9.33;;;6.73;;
13090;SDS011;6611;52.604;13.438;2023-12-14T04:23:42;9.47;;;5.90;;
13090;SDS011;6611;52.604;13.438;2023-12-14T04:28:45;9.27;;;6.97;;
13090;SDS011;6611;52.604;13.438;2023-12-14T04:33:47;10.77;;;6.77;;
13090;SDS011;6611;52.604;13.438;2023-12-14T04:38:50;9.23;;;6.90;;
13090;SDS011;6611;52.604;13.438;2023-12-14T04:43:52;10.37;;;7.30;;
13090;SDS011;6611;52.604;13.438;2023-12-14T04:48:54;11.60;;;7.37;;
13090;SDS011;6611;52.604;13.438;2023-12-14T04:53:57;10.63;;;6.97;;
13090;SDS011;6611;52.604;13.438;2023-12-14T04:58:59;11.13;;;7.40;;
13090;SDS011;6611;52.604;13.438;2023-12-14T05:04:00;9.03;;;6.83;;
13090;SDS011;6611;52.604;13.438;2023-12-14T05:09:04;10.27;;;7.47;;
13090;SDS011;6611;52.604;13.438;2023-12-14T05:14:07;9.67;;;6.90;;
13090;SDS011;6611;52.604;13.438;2023-12-14T05:19:08;9.40;;;6.77;;
13090;SDS011;6611;52.604;13.438;2023-12-14T05:24:11;12.07;;;7.27;;
13090;SDS011;6611;52.604;13.438;2023-12-14T05:29:13;7.47;;;6.07;;
13090;SDS011;6611;52.604;13.438;2023-12-14T05:34:17;9.40;;;6.40;;
13090;SDS011;6611;52.604;13.438;2023-12-14T05:39:20;7.23;;;5.97;;
13090;SDS011;6611;52.604;13.438;2023-12-14T05:44:22;9.43;;;7.13;;
13090;SDS011;6611;52.604;13.438;2023-12-14T05:49:25;6.90;;;5.97;;
13090;SDS011;6611;52.604;13.438;2023-12-14T05:54:28;9.67;;;6.97;;
13090;SDS011;6611;52.604;13.438;2023-12-14T05:59:30;8.23;;;6.13;;
13090;SDS011;6611;52.604;13.438;2023-12-14T06:04:31;8.10;;;6.40;;
13090;SDS011;6611;52.604;13.438;2023-12-14T06:09:35;9.33;;;6.40;;
13090;SDS011;6611;52.604;13.438;2023-12-14T06:14:36;9.10;;;6.77;;
13090;SDS011;6611;52.604;13.438;2023-12-14T06:19:38;10.40;;;6.93;;
13090;SDS011;6611;52.604;13.438;2023-12-14T06:24:41;8.07;;;6.67;;
13090;SDS011;6611;52.604;13.438;2023-12-14T06:29:43;9.53;;;7.07;;
13090;SDS011;6611;52.604;13.438;2023-12-14T06:34:45;8.57;;;6.43;;
13090;SDS011;6611;52.604;13.438;2023-12-14T06:39:48;9.50;;;7.03;;
13090;SDS011;6611;52.604;13.438;2023-12-14T06:44:49;9.13;;;7.40;;
13090;SDS011;6611;52.604;13.438;2023-12-14T06:49:51;11.47;;;7.10;;
13090;SDS011;6611;52.604;13.438;2023-12-14T06:54:54;11.10;;;8.00;;
13090;SDS011;6611;52.604;13.438;2023-12-14T06:59:56;10.53;;;6.87;;
13090;SDS011;6611;52.604;13.438;2023-12-14T07:04:58;10.83;;;7.70;;
13090;SDS011;6611;52.604;13.438;2023-12-14T07:10:01;12.57;;;8.67;;
13090;SDS011;6611;52.604;13.438;2023-12-14T07:15:03;17.37;;;9.00;;
13090;SDS011;6611;52.604;13.438;2023-12-14T07:20:06;16.33;;;9.10;;
13090;SDS011;6611;52.604;13.438;2023-12-14T07:25:09;14.13;;;8.90;;
13090;SDS011;6611;52.604;13.438;2023-12-14T07:30:11;15.50;;;9.53;;
13090;SDS011;6611;52.604;13.438;2023-12-14T07:35:13;13.67;;;9.47;;
13090;SDS011;6611;52.604;13.438;2023-12-14T07:40:16;13.17;;;9.03;;
13090;SDS011;6611;52.604;13.438;2023-12-14T07:45:18;13.97;;;9.33;;
13090;SDS011;6611;52.604;13.438;2023-12-14T07:50:20;13.80;;;9.10;;
13090;SDS011;6611;52.604;13.438;2023-12-14T07:55:23;16.10;;;10.77;;
13090;SDS011;6611;52.604;13.438;2023-12-14T08:00:24;12.63;;;8.87;;
13090;SDS011;6611;52.604;13.438;2023-12-14T08:05:26;14.27;;;10.07;;
13090;SDS011;6611;52.604;13.438;2023-12-14T08:10:29;13.37;;;9.10;;
13090;SDS011;6611;52.604;13.438;2023-12-14T08:15:31;14.17;;;8.70;;
13090;SDS011;6611;52.604;13.438;2023-12-14T08:20:32;14.37;;;9.50;;
13090;SDS011;6611;52.604;13.438;2023-12-14T08:25:35;16.53;;;9.67;;
13090;SDS011;6611;52.604;13.438;2023-12-14T08:30:37;13.80;;;9.27;;
13090;SDS011;6611;52.604;13.438;2023-12-14T08:35:39;13.23;;;8.70;;
13090;SDS011;6611;52.604;13.438;2023-12-14T08:40:42;13.97;;;9.00;;
13090;SDS011;6611;52.604;13.438;2023-12-14T08:45:44;14.83;;;9.97;;
13090;SDS011;6611;52.604;13.438;2023-12-14T08:50:46;16.03;;;10.07;;
13090;SDS011;6611;52.604;13.438;2023-12-14T08:55:49;15.27;;;10.17;;
13090;SDS011;6611;52.604;13.438;2023-12-14T09:00:50;11.57;;;9.30;;
13090;SDS011;6611;52.604;13.438;2023-12-14T09:05:53;16.13;;;10.07;;
13090;SDS011;6611;52.604;13.438;2023-12-14T09:10:56;13.80;;;9.47;;
13090;SDS011;6611;52.604;13.438;2023-12-14T09:15:57;15.73;;;9.77;;
13090;SDS011;6611;52.604;13.438;2023-12-14T09:20:59;12.30;;;9.40;;
13090;SDS011;6611;52.604;13.438;2023-12-14T09:26:02;13.20;;;9.07;;
13090;SDS011;6611;52.604;13.438;2023-12-14T09:31:06;14.13;;;9.67;;
13090;SDS011;6611;52.604;13.438;2023-12-14T09:36:07;13.73;;;9.37;;
13090;SDS011;6611;52.604;13.438;2023-12-14T09:41:11;13.57;;;9.17;;
13090;SDS011;6611;52.604;13.438;2023-12-14T09:46:13;13.60;;;10.10;;
13090;SDS011;6611;52.604;13.438;2023-12-14T09:51:16;15.70;;;9.90;;
13090;SDS011;6611;52.604;13.438;2023-12-14T09:56:19;17.60;;;10.43;;
13090;SDS011;6611;52.604;13.438;2023-12-14T10:01:21;15.13;;;10.23;;
13090;SDS011;6611;52.604;13.438;2023-12-14T10:06:24;14.63;;;9.40;;
13090;SDS011;6611;52.604;13.438;2023-12-14T10:11:27;15.73;;;8.93;;
13090;SDS011;6611;52.604;13.438;2023-12-14T10:16:29;15.20;;;9.37;;
13090;SDS011;6611;52.604;13.438;2023-12-14T10:21:31;13.70;;;9.57;;
13090;SDS011;6611;52.604;13.438;2023-12-14T10:26:34;14.87;;;9.57;;
13090;SDS011;6611;52.604;13.438;2023-12-14T10:31:36;15.20;;;9.17;;
13090;SDS011;6611;52.604;13.438;2023-12-14T10:36:39;15.13;;;9.10;;
13090;SDS011;6611;52.604;13.438;2023-12-14T10:41:43;14.03;;;8.73;;
13090;SDS011;6611;52.604;13.438;2023-12-14T10:46:48;14.13;;;9.67;;
13090;SDS011;6611;52.604;13.438;2023-12-14T10:51:51;15.10;;;9.50;;
13090;SDS011;6611;52.604;13.438;2023-12-14T10:56:56;11.60;;;8.43;;
13090;SDS011;6611;52.604;13.438;2023-12-14T11:01:58;13.90;;;9.97;;
13090;SDS011;6611;52.604;13.438;2023-12-14T11:07:00;12.90;;;8.40;;
13090;SDS011;6611;52.604;13.438;2023-12-14T11:12:03;15.77;;;9.43;;
13090;SDS011;6611;52.604;13.438;2023-12-14T11:17:05;13.53;;;9.30;;
13090;SDS011;6611;52.604;13.438;2023-12-14T11:22:11;13.37;;;8.20;;
13090;SDS011;6611;52.604;13.438;2023-12-14T11:27:28;11.83;;;8.67;;
13090;SDS011;6611;52.604;13.438;2023-12-14T11:32:30;11.97;;;8.30;;
13090;SDS011;6611;52.604;13.438;2023-12-14T11:37:32;11.23;;;8.60;;
13090;SDS011;6611;52.604;13.438;2023-12-14T11:42:36;13.03;;;8.87;;
13090;SDS011;6611;52.604;13.438;2023-12-14T11:47:38;13.53;;;9.03;;
13090;SDS011;6611;52.604;13.438;2023-12-14T11:52:40;11.83;;;8.77;;
13090;SDS011;6611;52.604;13.438;2023-12-14T11:57:46;13.73;;;8.60;;
13090;SDS011;6611;52.604;13.438;2023-12-14T12:02:48;11.03;;;7.50;;
13090;SDS011;6611;52.604;13.438;2023-12-14T12:07:50;11.07;;;7.37;;
13090;SDS011;6611;52.604;13.438;2023-12-14T12:13:00;12.47;;;8.83;;
13090;SDS011;6611;52.604;13.438;2023-12-14T12:18:06;11.97;;;8.10;;
13090;SDS011;6611;52.604;13.438;2023-12-14T12:23:09;12.10;;;8.30;;
13090;SDS011;6611;52.604;13.438;2023-12-14T12:28:12;12.53;;;8.27;;
13090;SDS011;6611;52.604;13.438;2023-12-14T12:33:14;11.27;;;7.73;;
13090;SDS011;6611;52.604;13.438;2023-12-14T12:38:15;11.70;;;8.17;;
13090;SDS011;6611;52.604;13.438;2023-12-14T12:43:20;11.10;;;8.30;;
13090;SDS011;6611;52.604;13.438;2023-12-14T12:48:21;14.77;;;8.80;;
13090;SDS011;6611;52.604;13.438;2023-12-14T12:53:23;12.47;;;9.07;;
13090;SDS011;6611;52.604;13.438;2023-12-14T12:58:28;11.97;;;8.10;;
13090;SDS011;6611;52.604;13.438;2023-12-14T13:03:29;11.30;;;8.90;;
13090;SDS011;6611;52.604;13.438;2023-12-14T13:08:31;13.10;;;8.63;;
13090;SDS011;6611;52.604;13.438;2023-12-14T13:13:34;14.67;;;8.87;;
13090;SDS011;6611;52.604;13.438;2023-12-14T13:18:36;13.83;;;8.90;;
13090;SDS011;6611;52.604;13.438;2023-12-14T13:23:37;11.60;;;7.90;;
13090;SDS011;6611;52.604;13.438;2023-12-14T13:28:40;14.63;;;8.90;;
13090;SDS011;6611;52.604;13.438;2023-12-14T13:33:42;10.80;;;7.77;;
13090;SDS011;6611;52.604;13.438;2023-12-14T13:38:44;11.07;;;8.07;;
13090;SDS011;6611;52.604;13.438;2023-12-14T13:43:47;10.80;;;7.80;;
13090;SDS011;6611;52.604;13.438;2023-12-14T13:48:48;11.87;;;8.30;;
13090;SDS011;6611;52.604;13.438;2023-12-14T13:53:50;12.13;;;8.20;;
13090;SDS011;6611;52.604;13.438;2023-12-14T13:58:53;13.80;;;7.93;;
13090;SDS011;6611;52.604;13.438;2023-12-14T14:03:55;11.13;;;7.53;;
13090;SDS011;6611;52.604;13.438;2023-12-14T14:08:56;10.83;;;7.60;;
13090;SDS011;6611;52.604;13.438;2023-12-14T14:13:59;11.90;;;8.20;;
13090;SDS011;6611;52.604;13.438;2023-12-14T14:19:01;12.97;;;9.37;;
13090;SDS011;6611;52.604;13.438;2023-12-14T14:24:03;13.33;;;8.03;;
13090;SDS011;6611;52.604;13.438;2023-12-14T14:29:06;13.50;;;9.73;;
13090;SDS011;6611;52.604;13.438;2023-12-14T14:34:11;12.77;;;9.40;;
13090;SDS011;6611;52.604;13.438;2023-12-14T14:39:12;15.63;;;9.43;;
13090;SDS011;6611;52.604;13.438;2023-12-14T14:44:16;11.80;;;8.70;;
13090;SDS011;6611;52.604;13.438;2023-12-14T14:49:18;11.47;;;8.17;;
13090;SDS011;6611;52.604;13.438;2023-12-14T14:54:19;12.00;;;8.50;;
13090;SDS011;6611;52.604;13.438;2023-12-14T14:59:22;11.67;;;7.87;;
13090;SDS011;6611;52.604;13.438;2023-12-14T15:04:24;10.70;;;7.60;;
13090;SDS011;6611;52.604;13.438;2023-12-14T15:09:26;12.43;;;8.30;;
13090;SDS011;6611;52.604;13.438;2023-12-14T15:14:29;11.20;;;8.00;;
13090;SDS011;6611;52.604;13.438;2023-12-14T15:19:30;10.40;;;7.27;;
13090;SDS011;6611;52.604;13.438;2023-12-14T15:24:32;11.13;;;7.10;;
13090;SDS011;6611;52.604;13.438;2023-12-14T15:29:35;10.63;;;7.30;;
13090;SDS011;6611;52.604;13.438;2023-12-14T15:34:36;9.43;;;7.23;;
13090;SDS011;6611;52.604;13.438;2023-12-14T15:39:38;12.17;;;7.50;;
13090;SDS011;6611;52.604;13.438;2023-12-14T15:44:41;11.03;;;6.83;;
13090;SDS011;6611;52.604;13.438;2023-12-14T15:49:44;14.23;;;8.17;;
13090;SDS011;6611;52.604;13.438;2023-12-14T15:54:46;14.33;;;7.73;;
13090;SDS011;6611;52.604;13.438;2023-12-14T15:59:49;10.87;;;7.57;;
13090;SDS011;6611;52.604;13.438;2023-12-14T16:04:50;10.20;;;6.87;;
13090;SDS011;6611;52.604;13.438;2023-12-14T16:09:52;12.20;;;7.93;;
13090;SDS011;6611;52.604;13.438;2023-12-14T16:14:55;11.33;;;7.50;;
13090;SDS011;6611;52.604;13.438;2023-12-14T16:19:57;11.13;;;7.27;;
13090;SDS011;6611;52.604;13.438;2023-12-14T16:24:59;12.10;;;7.20;;
13090;SDS011;6611;52.604;13.438;2023-12-14T16:30:03;10.67;;;7.07;;
13090;SDS011;6611;52.604;13.438;2023-12-14T16:35:06;11.93;;;7.70;;
13090;SDS011;6611;52.604;13.438;2023-12-14T16:40:08;10.70;;;7.63;;
13090;SDS011;6611;52.604;13.438;2023-12-14T16:45:12;11.40;;;8.37;;
13090;SDS011;6611;52.604;13.438;2023-12-14T16:50:14;10.70;;;7.50;;
13090;SDS011;6611;52.604;13.438;2023-12-14T16:55:15;10.77;;;7.43;;
13090;SDS011;6611;52.604;13.438;2023-12-14T17:00:19;14.47;;;8.43;;
13090;SDS011;6611;52.604;13.438;2023-12-14T17:05:20;14.53;;;10.83;;
13090;SDS011;6611;52.604;13.438;2023-12-14T17:10:22;13.40;;;10.37;;
13090;SDS011;6611;52.604;13.438;2023-12-14T17:15:25;14.03;;;8.97;;
13090;SDS011;6611;52.604;13.438;2023-12-14T17:20:27;12.03;;;8.17;;
13090;SDS011;6611;52.604;13.438;2023-12-14T17:25:29;11.60;;;7.83;;
13090;SDS011;6611;52.604;13.438;2023-12-14T17:30:32;13.67;;;7.37;;
13090;SDS011;6611;52.604;13.438;2023-12-14T17:35:34;10.53;;;6.87;;
13090;SDS011;6611;52.604;13.438;2023-12-14T17:40:36;11.37;;;8.37;;
13090;SDS011;6611;52.604;13.438;2023-12-14T17:45:38;9.43;;;7.17;;
13090;SDS011;6611;52.604;13.438;2023-12-14T17:50:40;10.03;;;7.47;;
13090;SDS011;6611;52.604;13.438;2023-12-14T17:55:42;13.70;;;9.20;;
13090;SDS011;6611;52.604;13.438;2023-12-14T18:00:45;14.83;;;8.57;;
13090;SDS011;6611;52.604;13.438;2023-12-14T18:05:46;13.90;;;8.23;;
13090;SDS011;6611;52.604;13.438;2023-12-14T18:10:48;12.50;;;8.00;;
13090;SDS011;6611;52.604;13.438;2023-12-14T18:15:51;12.00;;;8.10;;
13090;SDS011;6611;52.604;13.438;2023-12-14T18:20:53;11.70;;;7.97;;
13090;SDS011;6611;52.604;13.438;2023-12-14T18:25:54;12.73;;;7.87;;
13090;SDS011;6611;52.604;13.438;2023-12-14T18:30:58;11.73;;;7.50;;
13090;SDS011;6611;52.604;13.438;2023-12-14T18:36:01;14.93;;;8.67;;
13090;SDS011;6611;52.604;13.438;2023-12-14T18:41:03;10.23;;;7.43;;
13090;SDS011;6611;52.604;13.438;2023-12-14T18:46:06;12.67;;;8.23;;
13090;SDS011;6611;52.604;13.438;2023-12-14T18:51:09;12.53;;;8.13;;
13090;SDS011;6611;52.604;13.438;2023-12-14T18:56:11;10.10;;;7.27;;
13090;SDS011;6611;52.604;13.438;2023-12-14T19:01:14;13.20;;;8.10;;
13090;SDS011;6611;52.604;13.438;2023-12-14T19:06:16;12.40;;;8.10;;
13090;SDS011;6611;52.604;13.438;2023-12-14T19:11:18;13.33;;;7.97;;
13090;SDS011;6611;52.604;13.438;2023-12-14T19:16:25;13.07;;;7.97;;
13090;SDS011;6611;52.604;13.438;2023-12-14T19:21:29;13.30;;;9.10;;
13090;SDS011;6611;52.604;13.438;2023-12-14T19:26:31;19.27;;;13.53;;
13090;SDS011;6611;52.604;13.438;2023-12-14T19:31:34;20.23;;;12.30;;
13090;SDS011;6611;52.604;13.438;2023-12-14T19:36:36;26.47;;;14.63;;
13090;SDS011;6611;52.604;13.438;2023-12-14T19:41:37;20.53;;;14.43;;
13090;SDS011;6611;52.604;13.438;2023-12-14T19:46:41;16.50;;;12.20;;
13090;SDS011;6611;52.604;13.438;2023-12-14T19:51:42;16.73;;;11.90;;
13090;SDS011;6611;52.604;13.438;2023-12-14T19:56:44;16.03;;;10.80;;
13090;SDS011;6611;52.604;13.438;2023-12-14T20:01:47;13.93;;;9.47;;
13090;SDS011;6611;52.604;13.438;2023-12-14T20:06:49;16.17;;;10.23;;
13090;SDS011;6611;52.604;13.438;2023-12-14T20:11:54;20.90;;;13.87;;
13090;SDS011;6611;52.604;13.438;2023-12-14T20:16:57;18.80;;;11.60;;
13090;SDS011;6611;52.604;13.438;2023-12-14T20:21:59;15.80;;;10.07;;
13090;SDS011;6611;52.604;13.438;2023-12-14T20:27:01;12.90;;;8.67;;
13090;SDS011;6611;52.604;13.438;2023-12-14T20:32:04;11.60;;;7.97;;
13090;SDS011;6611;52.604;13.438;2023-12-14T20:37:06;12.93;;;7.63;;
13090;SDS011;6611;52.604;13.438;2023-12-14T20:42:08;11.70;;;8.20;;
13090;SDS011;6611;52.604;13.438;2023-12-14T20:47:11;12.17;;;7.53;;
13090;SDS011;6611;52.604;13.438;2023-12-14T20:52:12;12.53;;;8.40;;
13090;SDS011;6611;52.604;13.438;2023-12-14T20:57:14;11.93;;;7.23;;
13090;SDS011;6611;52.604;13.438;2023-12-14T21:02:17;11.17;;;7.43;;
13090;SDS011;6611;52.604;13.438;2023-12-14T21:07:19;10.03;;;7.23;;
13090;SDS011;6611;52.604;13.438;2023-12-14T21:12:21;11.63;;;6.77;;
13090;SDS011;6611;52.604;13.438;2023-12-14T21:17:25;14.27;;;7.90;;
13090;SDS011;6611;52.604;13.438;2023-12-14T21:22:26;12.83;;;8.33;;
13090;SDS011;6611;52.604;13.438;2023-12-14T21:27:28;11.60;;;7.77;;
13090;SDS011;6611;52.604;13.438;2023-12-14T21:32:50;11.63;;;7.20;;
13090;SDS011;6611;52.604;13.438;2023-12-14T21:37:52;9.93;;;7.23;;
13090;SDS011;6611;52.604;13.438;2023-12-14T21:42:54;12.73;;;8.47;;
13090;SDS011;6611;52.604;13.438;2023-12-14T21:47:57;13.77;;;9.10;;
13090;SDS011;6611;52.604;13.438;2023-12-14T21:52:58;16.73;;;9.50;;
13090;SDS011;6611;52.604;13.438;2023-12-14T21:58:00;13.10;;;9.10;;
13090;SDS011;6611;52.604;13.438;2023-12-14T22:03:03;16.70;;;9.77;;
13090;SDS011;6611;52.604;13.438;2023-12-14T22:08:05;15.17;;;9.80;;
13090;SDS011;6611;52.604;13.438;2023-12-14T22:13:06;13.83;;;9.30;;
13090;SDS011;6611;52.604;13.438;2023-12-14T22:18:09;14.27;;;9.37;;
13090;SDS011;6611;52.604;13.438;2023-12-14T22:23:11;14.83;;;9.40;;
13090;SDS011;6611;52.604;13.438;2023-12-14T22:28:13;14.20;;;9.00;;
13090;SDS011;6611;52.604;13.438;2023-12-14T22:33:16;13.93;;;9.27;;
13090;SDS011;6611;52.604;13.438;2023-12-14T22:38:17;14.60;;;10.00;;
13090;SDS011;6611;52.604;13.438;2023-12-14T22:43:19;15.90;;;9.77;;
13090;SDS011;6611;52.604;13.438;2023-12-14T22:48:22;15.97;;;10.50;;
13090;SDS011;6611;52.604;13.438;2023-12-14T22:53:24;19.77;;;11.73;;
13090;SDS011;6611;52.604;13.438;2023-12-14T22:58:25;16.67;;;10.53;;
13090;SDS011;6611;52.604;13.438;2023-12-14T23:03:28;14.10;;;10.03;;
13090;SDS011;6611;52.604;13.438;2023-12-14T23:08:30;12.63;;;8.80;;
13090;SDS011;6611;52.604;13.438;2023-12-14T23:13:31;12.90;;;8.37;;
13090;SDS011;6611;52.604;13.438;2023-12-14T23:18:34;14.50;;;8.20;;
13090;SDS011;6611;52.604;13.438;2023-12-14T23:23:36;14.57;;;8.43;;
13090;SDS011;6611;52.604;13.438;2023-12-14T23:28:38;13.77;;;8.03;;
13090;SDS011;6611;52.604;13.438;2023-12-14T23:33:41;12.43;;;7.90;;
13090;SDS011;6611;52.604;13.438;2023-12-14T23:38:42;15.83;;;8.77;;
13090;SDS011;6611;52.604;13.438;2023-12-14T23:43:44;12.93;;;8.17;;
13090;SDS011;6611;52.604;13.438;2023-12-14T23:48:47;13.27;;;8.07;;
13090;SDS011;6611;52.604;13.438;2023-12-14T23:53:49;12.83;;;8.17;;
13090;SDS011;6611;52.604;13.438;2023-12-14T23:58:50;10.43;;;7.63;;
